createdAt,value
2022-12-29T00:03:28.976Z,90.57
2022-12-29T00:08:32.645Z,90.37
2022-12-29T00:13:34.574Z,89.41
2022-12-29T00:18:36.622Z,88.18
2022-12-29T00:23:40.328Z,87.60
2022-12-29T00:28:42.463Z,86.90
2022-12-29T00:33:44.915Z,86.12
2022-12-29T00:38:51.914Z,85.46
2022-12-29T00:43:53.859Z,85.81
2022-12-29T00:48:55.661Z,85.04
2022-12-29T00:53:58.730Z,85.01
2022-12-29T00:59:02.089Z,84.70
2022-12-29T01:04:04.994Z,84.11
2022-12-29T01:09:09.276Z,84.59
2022-12-29T01:14:11.391Z,84.09
2022-12-29T01:19:14.047Z,84.01
2022-12-29T01:24:19.591Z,83.55
2022-12-29T01:29:21.840Z,83.42
2022-12-29T01:34:23.975Z,84.44
2022-12-29T01:39:27.071Z,84.47
2022-12-29T01:44:56.914Z,85.11
2022-12-29T01:50:02.512Z,85.31
2022-12-29T01:55:07.701Z,84.29
2022-12-29T02:00:12.141Z,84.59
2022-12-29T02:05:23.997Z,82.78
2022-12-29T02:10:30.812Z,81.93
2022-12-29T02:15:42.469Z,80.56
2022-12-29T02:21:19.411Z,80.61
2022-12-29T02:26:44.001Z,79.83
2022-12-29T02:31:53.493Z,78.44
2022-12-29T02:37:05.501Z,78.24
2022-12-29T02:42:15.380Z,77.60
2022-12-29T02:47:24.901Z,77.34
2022-12-29T02:52:30.169Z,76.97
2022-12-29T02:57:35.317Z,76.94
2022-12-29T03:03:12.417Z,76.56
2022-12-29T03:08:24.332Z,76.96
2022-12-29T03:13:33.905Z,76.46
2022-12-29T03:18:44.779Z,76.56
2022-12-29T03:23:49.368Z,76.58
2022-12-29T03:28:54.236Z,77.17
2022-12-29T03:33:59.427Z,76.80
2022-12-29T03:39:09.241Z,77.00
2022-12-29T03:44:11.860Z,76.58
2022-12-29T03:49:15.300Z,76.99
2022-12-29T03:54:17.111Z,76.71
2022-12-29T03:59:19.894Z,76.97
2022-12-29T04:04:23.877Z,76.94
2022-12-29T04:09:25.538Z,76.58
2022-12-29T04:14:27.593Z,77.26
2022-12-29T04:19:30.608Z,76.89
2022-12-29T04:24:32.796Z,76.94
2022-12-29T04:29:35.061Z,76.90
2022-12-29T04:34:38.744Z,76.94
2022-12-29T04:39:40.835Z,77.21
2022-12-29T04:44:45.240Z,77.22
2022-12-29T04:49:48.823Z,77.57
2022-12-29T04:54:50.910Z,77.62
2022-12-29T04:59:53.088Z,77.06
2022-12-29T05:04:56.456Z,77.96
2022-12-29T05:09:58.249Z,77.40
2022-12-29T05:15:00.575Z,77.52
2022-12-29T05:20:05.169Z,77.67
2022-12-29T05:25:07.565Z,77.21
2022-12-29T05:30:11.201Z,77.23
2022-12-29T05:35:14.609Z,76.55
2022-12-29T05:40:16.926Z,76.68
2022-12-29T05:45:19.407Z,76.35
2022-12-29T05:50:22.505Z,76.42
2022-12-29T05:55:24.224Z,76.52
2022-12-29T06:00:25.989Z,76.51
2022-12-29T06:05:29.489Z,76.84
2022-12-29T06:10:31.354Z,76.43
2022-12-29T06:15:33.972Z,76.81
2022-12-29T06:20:37.712Z,76.88
2022-12-29T06:25:39.788Z,77.10
2022-12-29T06:30:44.521Z,77.77
2022-12-29T06:35:47.931Z,78.11
2022-12-29T06:40:50.042Z,78.30
2022-12-29T06:45:52.423Z,78.47
2022-12-29T06:50:55.573Z,78.42
2022-12-29T06:55:57.373Z,78.93
2022-12-29T07:00:59.544Z,79.12
2022-12-29T07:06:03.199Z,79.75
2022-12-29T07:11:05.463Z,80.22
2022-12-29T07:16:08.306Z,80.41
2022-12-29T07:21:11.937Z,81.24
2022-12-29T07:26:15.977Z,81.38
2022-12-29T07:31:21.675Z,81.71
2022-12-29T07:36:29.314Z,81.36
2022-12-29T07:41:34.181Z,81.79
2022-12-29T07:46:54.252Z,81.39
2022-12-29T07:51:59.492Z,81.46
2022-12-29T07:57:01.292Z,81.15
2022-12-29T08:02:03.159Z,81.17
2022-12-29T08:07:06.372Z,80.60
2022-12-29T08:12:10.164Z,80.33
2022-12-29T08:17:12.445Z,80.34
2022-12-29T08:22:16.132Z,79.66
2022-12-29T08:27:21.047Z,80.17
2022-12-29T08:32:23.831Z,79.95
2022-12-29T08:37:31.089Z,79.92
2022-12-29T08:42:33.983Z,79.86
2022-12-29T08:47:35.737Z,79.34
2022-12-29T08:52:38.824Z,79.09
2022-12-29T08:57:40.611Z,79.00
2022-12-29T09:02:42.556Z,78.60
2022-12-29T09:07:45.827Z,78.28
2022-12-29T09:12:48.057Z,78.62
2022-12-29T09:17:50.495Z,78.58
2022-12-29T09:22:53.864Z,77.96
2022-12-29T09:27:55.913Z,75.91
2022-12-29T09:32:58.309Z,75.24
2022-12-29T09:38:01.604Z,75.57
2022-12-29T09:43:18.391Z,74.76
2022-12-29T09:48:25.343Z,74.00
2022-12-29T09:53:33.019Z,72.42
2022-12-29T09:58:40.913Z,72.47
2022-12-29T10:03:48.688Z,68.86
2022-12-29T10:08:59.733Z,60.39
2022-12-29T10:14:21.124Z,61.19
2022-12-29T10:19:36.836Z,59.75
2022-12-29T10:24:40.768Z,64.61
2022-12-29T10:29:47.803Z,63.11
2022-12-29T10:34:55.105Z,69.65
2022-12-29T10:40:00.278Z,71.55
2022-12-29T10:45:02.616Z,71.99
2022-12-29T10:50:06.555Z,72.42
2022-12-29T10:55:17.186Z,72.28
2022-12-29T11:00:21.533Z,71.97
2022-12-29T11:05:29.810Z,73.13
2022-12-29T11:10:38.748Z,76.00
2022-12-29T11:15:42.417Z,78.33
2022-12-29T11:20:44.461Z,80.44
2022-12-29T11:25:47.914Z,84.63
2022-12-29T11:31:00.901Z,88.66
2022-12-29T11:36:06.537Z,92.40
2022-12-29T11:41:14.398Z,95.22
2022-12-29T11:46:20.626Z,97.78
2022-12-29T11:51:25.398Z,99.73
2022-12-29T11:56:40.878Z,100.00
2022-12-29T12:01:44.378Z,100.00
2022-12-29T12:06:56.040Z,100.00
2022-12-29T12:12:02.444Z,98.28
2022-12-29T12:17:10.482Z,96.32
2022-12-29T12:22:27.678Z,96.96
2022-12-29T12:27:39.139Z,96.85
2022-12-29T12:32:47.729Z,96.62
2022-12-29T12:38:10.910Z,97.10
2022-12-29T12:43:33.592Z,96.50
2022-12-29T12:48:52.634Z,96.15
2022-12-29T12:54:09.069Z,95.93
2022-12-29T12:59:25.187Z,95.22
2022-12-29T13:04:54.332Z,93.34
2022-12-29T13:10:27.170Z,92.99
2022-12-29T13:15:44.150Z,92.67
2022-12-29T13:20:50.928Z,93.35
2022-12-29T13:26:05.488Z,94.48
2022-12-29T13:31:16.526Z,94.89
2022-12-29T13:36:25.590Z,95.59
2022-12-29T13:41:34.538Z,96.62
2022-12-29T13:46:41.339Z,96.90
2022-12-29T13:51:47.805Z,97.82
2022-12-29T13:56:57.388Z,97.81
2022-12-29T14:02:09.675Z,98.35
2022-12-29T14:07:18.015Z,98.97
2022-12-29T14:12:23.425Z,98.93
2022-12-29T14:17:26.911Z,97.95
2022-12-29T14:22:33.241Z,95.48
2022-12-29T14:27:52.756Z,94.42
2022-12-29T14:33:14.012Z,93.93
2022-12-29T14:38:28.748Z,93.75
2022-12-29T14:43:31.739Z,92.21
2022-12-29T14:48:39.300Z,92.53
2022-12-29T14:53:48.891Z,91.79
2022-12-29T14:58:54.625Z,91.22
2022-12-29T15:04:05.836Z,91.67
2022-12-29T15:09:18.934Z,90.63
2022-12-29T15:14:33.684Z,90.33
2022-12-29T15:19:36.918Z,89.13
2022-12-29T15:24:43.064Z,88.77
2022-12-29T15:29:46.928Z,88.79
2022-12-29T15:34:52.195Z,88.20
2022-12-29T15:39:55.835Z,87.42
2022-12-29T15:45:09.861Z,87.04
2022-12-29T15:50:23.514Z,85.85
2022-12-29T15:55:30.400Z,83.51
2022-12-29T16:00:34.830Z,83.04
2022-12-29T16:05:40.393Z,81.35
2022-12-29T16:10:44.019Z,80.94
2022-12-29T16:15:47.280Z,79.53
2022-12-29T16:20:50.554Z,78.73
2022-12-29T16:25:54.510Z,77.71
2022-12-29T16:31:03.711Z,76.84
2022-12-29T16:36:29.438Z,76.63
2022-12-29T16:41:32.556Z,75.35
2022-12-29T16:46:35.035Z,74.91
2022-12-29T16:51:38.794Z,75.13
2022-12-29T16:56:46.332Z,75.27
2022-12-29T17:01:48.853Z,74.97
2022-12-29T17:06:52.722Z,75.47
2022-12-29T17:12:10.754Z,75.45
2022-12-29T17:17:17.402Z,75.88
2022-12-29T17:22:24.223Z,76.77
2022-12-29T17:27:30.599Z,75.82
2022-12-29T17:32:33.190Z,74.11
2022-12-29T17:37:37.668Z,74.41
2022-12-29T17:42:44.863Z,75.24
2022-12-29T17:47:47.502Z,75.84
2022-12-29T17:52:55.341Z,76.09
2022-12-29T17:58:02.092Z,76.59
2022-12-29T18:03:04.246Z,77.68
2022-12-29T18:08:11.312Z,79.13
2022-12-29T18:13:19.856Z,80.76
2022-12-29T18:18:23.597Z,81.43
2022-12-29T18:23:28.693Z,81.92
2022-12-29T18:28:31.500Z,81.91
2022-12-29T18:33:33.847Z,81.92
2022-12-29T18:38:37.051Z,81.42
2022-12-29T18:43:39.269Z,82.46
2022-12-29T18:48:42.058Z,82.70
2022-12-29T18:53:45.884Z,83.32
2022-12-29T18:58:47.591Z,83.38
2022-12-29T19:03:49.694Z,84.00
2022-12-29T19:08:52.968Z,85.26
2022-12-29T19:13:54.665Z,86.56
2022-12-29T19:19:08.784Z,87.05
2022-12-29T19:24:13.528Z,87.61
2022-12-29T19:29:15.470Z,87.55
2022-12-29T19:34:17.799Z,87.42
2022-12-29T19:39:21.467Z,86.52
2022-12-29T19:44:23.619Z,87.06
2022-12-29T19:49:25.888Z,87.19
2022-12-29T19:54:29.228Z,87.12
2022-12-29T19:59:31.101Z,87.52
2022-12-29T20:04:33.060Z,86.77
2022-12-29T20:09:36.149Z,85.64
2022-12-29T20:14:38.624Z,84.39
2022-12-29T20:19:41.817Z,83.44
2022-12-29T20:24:49.896Z,83.11
2022-12-29T20:29:52.651Z,83.23
2022-12-29T20:34:54.809Z,82.84
2022-12-29T20:39:58.204Z,82.68
2022-12-29T20:45:00.444Z,83.05
2022-12-29T20:50:03.073Z,83.61
2022-12-29T20:55:06.714Z,84.62
2022-12-29T21:00:10.037Z,85.54
2022-12-29T21:05:23.722Z,85.39
2022-12-29T21:10:27.956Z,84.28
2022-12-29T21:15:31.664Z,83.69
2022-12-29T21:20:34.207Z,82.84
2022-12-29T21:25:47.698Z,82.13
2022-12-29T21:30:51.577Z,83.33
2022-12-29T21:35:54.381Z,83.45
2022-12-29T21:41:05.307Z,82.71
2022-12-29T21:46:08.384Z,81.94
2022-12-29T21:51:13.716Z,81.99
2022-12-29T21:56:19.704Z,81.82
2022-12-29T22:01:23.896Z,82.62
2022-12-29T22:06:27.324Z,82.42
2022-12-29T22:11:31.986Z,82.65
2022-12-29T22:16:35.775Z,82.95
2022-12-29T22:21:41.586Z,83.14
2022-12-29T22:26:45.545Z,83.42
2022-12-29T22:31:48.365Z,83.66
2022-12-29T22:36:50.806Z,82.93
2022-12-29T22:41:54.022Z,81.61
2022-12-29T22:46:56.442Z,81.72
2022-12-29T22:51:58.720Z,81.51
2022-12-29T22:57:01.979Z,82.10
2022-12-29T23:02:03.930Z,82.12
2022-12-29T23:07:06.069Z,82.64
2022-12-29T23:12:09.578Z,82.76
2022-12-29T23:17:11.383Z,82.49
2022-12-29T23:22:13.104Z,82.37
2022-12-29T23:27:16.836Z,82.14
2022-12-29T23:32:18.597Z,81.91
2022-12-29T23:37:20.692Z,81.03
2022-12-29T23:42:23.745Z,80.65
2022-12-29T23:47:25.716Z,80.21
2022-12-29T23:52:28.046Z,80.37
2022-12-29T23:57:31.569Z,79.92
